VIV82W MMMY-MMGL
Flight info
| Callsign | VIV82W |
|---|---|
| Flight time | N/A |
| Altitude | 30000 |
| Route | URTOB1A URTOB UJ11 MEZCA MEZCA1B |
| Aircraft | A320/M-SDE3FGHIRWY/LB1 |
Departure
| Time | 2026-04-22 01:41 |
|---|---|
| Airport | Monterrey International Airport (MMMY) |
Arrival
| Time | N/A |
|---|---|
| Airport | Guadalajara International Airport (MMGL) |
| Time | Latitude | Longitude | Altitude | Speed | Heading |
|---|---|---|---|---|---|
| 2026-04-22 01:12 | 25.77878 | -100.11332 | 1281 ft | 0 kts | 211° |
| 2026-04-22 01:32 | 25.77886 | -100.11326 | 1281 ft | 2 kts | 211° |
| 2026-04-22 01:32 | 25.77900 | -100.11317 | 1281 ft | 2 kts | 214° |
| 2026-04-22 01:33 | 25.77914 | -100.11306 | 1285 ft | 2 kts | 218° |
| 2026-04-22 01:33 | 25.77927 | -100.11295 | 1282 ft | 2 kts | 221° |
| 2026-04-22 01:33 | 25.77939 | -100.11282 | 1281 ft | 2 kts | 238° |
| 2026-04-22 01:33 | 25.77944 | -100.11265 | 1281 ft | 2 kts | 292° |
| 2026-04-22 01:34 | 25.77941 | -100.11257 | 1281 ft | 0 kts | 302° |
| 2026-04-22 01:36 | 25.77948 | -100.11269 | 1281 ft | 3 kts | 302° |
| 2026-04-22 01:36 | 25.77967 | -100.11304 | 1281 ft | 7 kts | 301° |
| 2026-04-22 01:37 | 25.77998 | -100.11362 | 1281 ft | 12 kts | 301° |
| 2026-04-22 01:37 | 25.78048 | -100.11452 | 1281 ft | 13 kts | 301° |
| 2026-04-22 01:37 | 25.78099 | -100.11545 | 1281 ft | 15 kts | 301° |
| 2026-04-22 01:37 | 25.78138 | -100.11615 | 1281 ft | 11 kts | 301° |
| 2026-04-22 01:38 | 25.78181 | -100.11693 | 1281 ft | 13 kts | 301° |
| 2026-04-22 01:38 | 25.78226 | -100.11776 | 1281 ft | 7 kts | 301° |
| 2026-04-22 01:38 | 25.78258 | -100.11805 | 1281 ft | 6 kts | 351° |
| 2026-04-22 01:38 | 25.78302 | -100.11786 | 1281 ft | 8 kts | 31° |
| 2026-04-22 01:39 | 25.78316 | -100.11776 | 1283 ft | 1 kts | 32° |
| 2026-04-22 01:39 | 25.78326 | -100.11769 | 1281 ft | 3 kts | 32° |
| 2026-04-22 01:39 | 25.78353 | -100.11751 | 1281 ft | 7 kts | 32° |
| 2026-04-22 01:39 | 25.78399 | -100.11719 | 1281 ft | 9 kts | 38° |
| 2026-04-22 01:40 | 25.78397 | -100.11678 | 1281 ft | 6 kts | 121° |
| 2026-04-22 01:40 | 25.78357 | -100.11609 | 1281 ft | 27 kts | 122° |
| 2026-04-22 01:40 | 25.78129 | -100.11193 | 1281 ft | 95 kts | 121° |
| 2026-04-22 01:40 | 25.77694 | -100.10404 | 1278 ft | 143 kts | 121° |
| 2026-04-22 01:41 | 25.77117 | -100.09344 | 1429 ft | 170 kts | 121° |
| 2026-04-22 01:41 | 25.76476 | -100.08199 | 1976 ft | 179 kts | 121° |
| 2026-04-22 01:41 | 25.75791 | -100.07021 | 2565 ft | 184 kts | 123° |
| 2026-04-22 01:41 | 25.75108 | -100.05776 | 2971 ft | 199 kts | 119° |
| 2026-04-22 01:42 | 25.74411 | -100.04340 | 3293 ft | 223 kts | 118° |
| 2026-04-22 01:42 | 25.73643 | -100.02735 | 3656 ft | 248 kts | 119° |
| 2026-04-22 01:42 | 25.72804 | -100.01001 | 4269 ft | 260 kts | 119° |
| 2026-04-22 01:42 | 25.71929 | -99.99226 | 5093 ft | 264 kts | 120° |
| 2026-04-22 01:43 | 25.71032 | -99.97423 | 5876 ft | 270 kts | 119° |
| 2026-04-22 01:43 | 25.69963 | -99.95698 | 6588 ft | 276 kts | 138° |
| 2026-04-22 01:43 | 25.68266 | -99.94708 | 7251 ft | 282 kts | 168° |
| 2026-04-22 01:43 | 25.66312 | -99.94729 | 7921 ft | 285 kts | 196° |